createdAt,value
2018-03-31T00:01:27.786Z,7.70
2018-03-31T00:03:54.844Z,7.70
2018-03-31T00:06:21.911Z,7.70
2018-03-31T00:08:48.984Z,7.70
2018-03-31T00:11:16.130Z,7.60
2018-03-31T00:13:43.200Z,7.60
2018-03-31T00:16:11.097Z,7.60
2018-03-31T00:18:38.150Z,7.50
2018-03-31T00:21:05.481Z,7.50
2018-03-31T00:23:32.592Z,7.50
2018-03-31T00:25:59.669Z,7.50
2018-03-31T00:28:27.533Z,7.50
2018-03-31T00:30:55.367Z,7.50
2018-03-31T00:33:22.488Z,7.50
2018-03-31T00:35:49.571Z,7.50
2018-03-31T00:38:16.649Z,7.50
2018-03-31T00:40:43.774Z,7.50
2018-03-31T00:43:10.860Z,7.50
2018-03-31T00:45:37.940Z,7.60
2018-03-31T00:48:05.029Z,7.50
2018-03-31T00:50:32.092Z,7.50
2018-03-31T00:52:59.182Z,7.50
2018-03-31T00:55:26.361Z,7.50
2018-03-31T00:57:53.473Z,7.50
2018-03-31T01:00:20.534Z,7.40
2018-03-31T01:02:47.595Z,7.40
2018-03-31T01:05:14.716Z,7.40
2018-03-31T01:07:41.788Z,7.50
2018-03-31T01:10:08.861Z,7.50
2018-03-31T01:12:35.959Z,7.50
2018-03-31T01:15:03.077Z,7.50
2018-03-31T01:17:30.158Z,7.50
2018-03-31T01:19:57.235Z,7.40
2018-03-31T01:22:24.348Z,7.40
2018-03-31T01:24:51.445Z,7.40
2018-03-31T01:27:18.530Z,7.40
2018-03-31T01:29:46.405Z,7.30
2018-03-31T01:32:14.252Z,7.30
2018-03-31T01:34:41.409Z,7.30
2018-03-31T01:37:08.488Z,7.30
2018-03-31T01:39:35.595Z,7.30
2018-03-31T01:42:02.663Z,7.30
2018-03-31T01:44:30.533Z,7.30
2018-03-31T01:46:57.639Z,7.30
2018-03-31T01:49:24.745Z,7.30
2018-03-31T01:51:51.855Z,7.30
2018-03-31T01:54:19.685Z,7.30
2018-03-31T01:56:46.748Z,7.30
2018-03-31T01:59:13.885Z,7.30
2018-03-31T02:01:40.964Z,7.30
2018-03-31T02:04:08.048Z,7.30
2018-03-31T02:06:35.151Z,7.40
2018-03-31T02:09:02.243Z,7.40
2018-03-31T02:11:30.077Z,7.30
2018-03-31T02:13:57.191Z,7.30
2018-03-31T02:16:24.324Z,7.30
2018-03-31T02:18:51.380Z,7.30
2018-03-31T02:21:18.454Z,7.30
2018-03-31T02:23:45.552Z,7.30
2018-03-31T02:26:12.628Z,7.20
2018-03-31T02:28:39.721Z,7.20
2018-03-31T02:31:06.815Z,7.20
2018-03-31T02:33:33.887Z,7.20
2018-03-31T02:36:01.080Z,7.20
2018-03-31T02:38:28.102Z,7.20
2018-03-31T02:40:55.189Z,7.20
2018-03-31T02:43:23.065Z,7.20
2018-03-31T02:45:50.136Z,7.20
2018-03-31T02:48:17.364Z,7.10
2018-03-31T02:50:45.220Z,7.20
2018-03-31T02:53:13.067Z,7.10
2018-03-31T02:55:40.173Z,7.10
2018-03-31T02:58:07.257Z,7.10
2018-03-31T03:00:34.402Z,7.10
2018-03-31T03:03:01.536Z,7.10
2018-03-31T03:05:28.607Z,7.10
2018-03-31T03:07:55.730Z,7.10
2018-03-31T03:10:22.860Z,7.10
2018-03-31T03:12:49.944Z,7.20
2018-03-31T03:15:16.995Z,7.20
2018-03-31T03:17:44.102Z,7.20
2018-03-31T03:20:11.164Z,7.20
2018-03-31T03:22:38.276Z,7.20
2018-03-31T03:25:05.340Z,7.10
2018-03-31T03:27:32.423Z,7.10
2018-03-31T03:29:59.619Z,7.10
2018-03-31T03:32:28.195Z,7.10
2018-03-31T03:34:55.298Z,7.10
2018-03-31T03:37:22.379Z,7.10
2018-03-31T03:39:49.448Z,7.20
2018-03-31T03:42:16.863Z,7.20
2018-03-31T03:44:43.911Z,7.20
2018-03-31T03:47:11.011Z,7.20
2018-03-31T03:49:38.849Z,7.20
2018-03-31T03:52:05.977Z,7.20
2018-03-31T03:54:33.025Z,7.20
2018-03-31T03:57:00.095Z,7.10
2018-03-31T03:59:27.270Z,7.10
2018-03-31T04:01:54.336Z,7.10
2018-03-31T04:04:22.155Z,7.10
2018-03-31T04:06:49.261Z,7.10
2018-03-31T04:09:16.334Z,7.10
2018-03-31T04:11:43.426Z,7.10
2018-03-31T04:14:10.493Z,7.10
2018-03-31T04:16:37.595Z,7.20
2018-03-31T04:19:04.679Z,7.10
2018-03-31T04:21:32.507Z,7.20
2018-03-31T04:23:59.587Z,7.20
2018-03-31T04:26:26.653Z,7.20
2018-03-31T04:28:54.512Z,7.20
2018-03-31T04:31:22.375Z,7.20
2018-03-31T04:33:49.449Z,7.20
2018-03-31T04:36:16.524Z,7.20
2018-03-31T04:38:43.622Z,7.20
2018-03-31T04:41:11.493Z,7.20
2018-03-31T04:43:38.590Z,7.20
2018-03-31T04:46:05.657Z,7.20
2018-03-31T04:48:32.789Z,7.20
2018-03-31T04:50:59.860Z,7.20
2018-03-31T04:53:26.943Z,7.20
2018-03-31T04:55:54.812Z,7.20
2018-03-31T04:58:21.906Z,7.30
2018-03-31T05:00:49.002Z,7.30
2018-03-31T05:03:16.150Z,7.30
2018-03-31T05:05:43.228Z,7.30
2018-03-31T05:08:10.317Z,7.30
2018-03-31T05:10:37.386Z,7.30
2018-03-31T05:13:04.481Z,7.40
2018-03-31T05:15:31.552Z,7.30
2018-03-31T05:17:58.646Z,7.30
2018-03-31T05:20:26.478Z,7.40
2018-03-31T05:22:53.556Z,7.40
2018-03-31T05:25:20.658Z,7.50
2018-03-31T05:27:47.956Z,7.50
2018-03-31T05:30:15.828Z,7.50
2018-03-31T05:32:42.903Z,7.50
2018-03-31T05:35:09.969Z,7.50
2018-03-31T05:37:37.073Z,7.50
2018-03-31T05:40:04.907Z,7.50
2018-03-31T05:42:31.986Z,7.50
2018-03-31T05:44:59.099Z,7.50
2018-03-31T05:47:26.180Z,7.60
2018-03-31T05:49:53.280Z,7.50
2018-03-31T05:52:20.344Z,7.60
2018-03-31T05:54:47.446Z,7.70
2018-03-31T05:57:14.585Z,7.70
2018-03-31T05:59:41.676Z,7.70
2018-03-31T06:02:08.733Z,7.70
2018-03-31T06:04:35.828Z,7.70
2018-03-31T06:07:02.912Z,7.70
2018-03-31T06:09:30.011Z,7.70
2018-03-31T06:11:57.075Z,7.70
2018-03-31T06:14:24.906Z,7.70
2018-03-31T06:16:52.767Z,7.70
2018-03-31T06:19:20.591Z,7.80
2018-03-31T06:21:47.655Z,7.70
2018-03-31T06:24:14.740Z,7.80
2018-03-31T06:26:41.815Z,7.80
2018-03-31T06:29:08.920Z,7.80
2018-03-31T06:31:35.984Z,7.80
2018-03-31T06:34:03.120Z,7.90
2018-03-31T06:36:30.189Z,7.90
2018-03-31T06:38:57.265Z,7.90
2018-03-31T06:41:25.158Z,8.00
2018-03-31T06:43:52.229Z,8.00
2018-03-31T06:46:19.342Z,8.00
2018-03-31T06:48:46.417Z,8.00
2018-03-31T06:51:13.489Z,8.00
2018-03-31T06:53:40.575Z,8.00
2018-03-31T06:56:07.653Z,8.10
2018-03-31T06:58:34.757Z,8.10
2018-03-31T07:01:01.821Z,8.10
2018-03-31T07:03:28.880Z,8.10
2018-03-31T07:05:56.011Z,8.10
2018-03-31T07:08:23.093Z,8.10
2018-03-31T07:10:50.145Z,8.10
2018-03-31T07:13:17.262Z,8.00
2018-03-31T07:15:44.339Z,8.10
2018-03-31T07:18:11.427Z,8.10
2018-03-31T07:20:39.287Z,8.10
2018-03-31T07:23:06.335Z,8.10
2018-03-31T07:25:33.393Z,8.20
2018-03-31T07:28:00.484Z,8.20
2018-03-31T07:30:27.576Z,8.20
2018-03-31T07:32:54.675Z,8.30
2018-03-31T07:35:22.644Z,8.30
2018-03-31T07:37:50.476Z,8.20
2018-03-31T07:40:17.570Z,8.20
2018-03-31T07:42:45.391Z,8.30
2018-03-31T07:45:12.502Z,8.20
2018-03-31T07:47:39.607Z,8.30
2018-03-31T07:50:06.683Z,8.30
2018-03-31T07:52:34.528Z,8.40
2018-03-31T07:55:01.594Z,8.40
2018-03-31T07:57:29.444Z,8.40
2018-03-31T07:59:56.539Z,8.40
2018-03-31T08:02:23.643Z,8.40
2018-03-31T08:04:50.701Z,8.40
2018-03-31T08:07:18.526Z,8.50
2018-03-31T08:09:45.620Z,8.40
2018-03-31T08:12:13.439Z,8.60
2018-03-31T08:14:40.488Z,8.50
2018-03-31T08:17:07.616Z,8.60
2018-03-31T08:19:34.690Z,8.70
2018-03-31T08:22:01.771Z,8.70
2018-03-31T08:24:28.848Z,8.80
2018-03-31T08:26:55.903Z,8.80
2018-03-31T08:29:23.004Z,9.00
2018-03-31T08:31:50.106Z,9.00
2018-03-31T08:34:17.173Z,9.10
2018-03-31T08:36:44.227Z,9.20
2018-03-31T08:39:11.284Z,9.20
2018-03-31T08:41:38.392Z,9.20
2018-03-31T08:44:05.570Z,9.30
2018-03-31T08:46:32.621Z,9.40
2018-03-31T08:48:59.680Z,9.50
2018-03-31T08:51:26.784Z,9.60
2018-03-31T08:53:53.831Z,9.70
2018-03-31T08:56:21.665Z,10.00
2018-03-31T08:58:48.756Z,10.10
2018-03-31T09:01:15.835Z,10.20
2018-03-31T09:03:42.939Z,10.40
2018-03-31T09:06:10.795Z,10.50
2018-03-31T09:08:38.661Z,10.60
2018-03-31T09:11:05.773Z,10.60
2018-03-31T09:13:32.839Z,10.60
2018-03-31T09:15:59.951Z,10.80
2018-03-31T09:18:27.012Z,10.80
2018-03-31T09:20:54.076Z,10.80
2018-03-31T09:23:21.182Z,10.70
2018-03-31T09:25:48.242Z,10.70
2018-03-31T09:28:15.291Z,10.70
2018-03-31T09:30:42.384Z,10.70
2018-03-31T09:33:09.492Z,10.80
2018-03-31T09:35:36.606Z,10.80
2018-03-31T09:38:03.673Z,10.90
2018-03-31T09:40:30.761Z,10.80
2018-03-31T09:42:57.852Z,10.80
2018-03-31T09:45:24.912Z,10.90
2018-03-31T09:47:52.045Z,10.90
2018-03-31T09:50:19.134Z,10.90
2018-03-31T09:52:46.202Z,10.90
2018-03-31T09:55:13.298Z,10.80
2018-03-31T09:57:40.368Z,10.90
2018-03-31T10:00:07.468Z,10.90
2018-03-31T10:02:34.550Z,10.90
2018-03-31T10:05:02.862Z,11.00
2018-03-31T10:07:29.977Z,10.90
2018-03-31T10:09:57.042Z,11.20
2018-03-31T10:12:24.094Z,11.20
2018-03-31T10:14:51.191Z,11.40
2018-03-31T10:17:18.295Z,11.50
2018-03-31T10:19:45.387Z,11.70
2018-03-31T10:22:12.497Z,11.90
2018-03-31T10:24:39.575Z,12.00
2018-03-31T10:27:06.825Z,12.20
2018-03-31T10:29:33.892Z,12.20
2018-03-31T10:32:00.994Z,12.30
2018-03-31T10:34:28.096Z,12.40
2018-03-31T10:36:55.985Z,12.40
2018-03-31T10:39:23.077Z,12.40
2018-03-31T10:41:50.196Z,12.40
2018-03-31T10:44:17.278Z,12.40
2018-03-31T10:46:44.371Z,12.50
2018-03-31T10:49:12.201Z,12.70
2018-03-31T10:51:40.079Z,12.80
2018-03-31T10:54:07.148Z,12.80
2018-03-31T10:56:35.014Z,13.40
2018-03-31T10:59:02.854Z,13.50
2018-03-31T11:01:30.039Z,13.50
2018-03-31T11:03:57.125Z,13.50
2018-03-31T11:06:24.211Z,13.60
2018-03-31T11:08:51.299Z,13.80
2018-03-31T11:11:19.147Z,13.70
2018-03-31T11:13:46.707Z,13.70
2018-03-31T11:16:13.799Z,13.80
2018-03-31T11:18:40.883Z,14.10
2018-03-31T11:21:07.957Z,14.20
2018-03-31T11:23:35.827Z,14.20
2018-03-31T11:26:02.927Z,14.20
2018-03-31T11:28:29.992Z,14.30
2018-03-31T11:30:57.074Z,14.30
2018-03-31T11:33:24.182Z,14.40
2018-03-31T11:35:51.270Z,14.50
2018-03-31T11:38:19.093Z,14.30
2018-03-31T11:40:46.182Z,14.30
2018-03-31T11:43:14.047Z,14.70
2018-03-31T11:45:41.124Z,14.60
2018-03-31T11:48:08.196Z,14.60
2018-03-31T11:50:35.300Z,14.60
2018-03-31T11:53:03.152Z,15.00
2018-03-31T11:55:30.279Z,15.00
2018-03-31T11:57:57.353Z,15.20
2018-03-31T12:00:25.190Z,15.50
2018-03-31T12:02:52.288Z,15.50
2018-03-31T12:05:20.159Z,16.00
2018-03-31T12:07:47.221Z,16.00
2018-03-31T12:10:14.365Z,16.20
2018-03-31T12:12:41.454Z,16.20
2018-03-31T12:15:08.528Z,16.40
2018-03-31T12:17:35.640Z,16.40
2018-03-31T12:20:02.771Z,16.30
2018-03-31T12:22:29.829Z,16.30
2018-03-31T12:24:56.883Z,16.10
2018-03-31T12:27:24.042Z,16.00
2018-03-31T12:29:51.098Z,16.00
2018-03-31T12:32:18.155Z,16.10
2018-03-31T12:34:45.241Z,16.30
2018-03-31T12:37:12.299Z,16.40
2018-03-31T12:39:39.363Z,16.20
2018-03-31T12:42:06.461Z,16.30
2018-03-31T12:44:33.532Z,16.30
2018-03-31T12:47:01.395Z,16.60
2018-03-31T12:49:28.461Z,16.60
2018-03-31T12:51:55.507Z,16.70
2018-03-31T12:54:22.612Z,16.60
2018-03-31T12:56:49.672Z,16.70
2018-03-31T12:59:16.753Z,16.60
2018-03-31T13:01:43.844Z,16.40
2018-03-31T13:04:11.092Z,16.40
2018-03-31T13:06:38.453Z,16.40
2018-03-31T13:09:05.537Z,16.40
2018-03-31T13:11:33.413Z,16.50
2018-03-31T13:14:01.252Z,16.30
2018-03-31T13:16:28.319Z,16.30
2018-03-31T13:18:56.190Z,16.10
2018-03-31T13:21:23.266Z,16.10
2018-03-31T13:23:50.394Z,16.20
2018-03-31T13:26:18.233Z,16.10
2018-03-31T13:28:45.308Z,16.00
2018-03-31T13:31:13.193Z,16.00
2018-03-31T13:33:40.267Z,16.00
2018-03-31T13:36:07.367Z,16.10
2018-03-31T13:38:35.215Z,16.20
2018-03-31T13:41:02.304Z,16.20
2018-03-31T13:43:29.422Z,16.00
2018-03-31T13:45:56.571Z,16.10
2018-03-31T13:48:23.682Z,16.10
2018-03-31T13:50:50.853Z,16.20
2018-03-31T13:53:17.933Z,16.20
2018-03-31T13:55:45.748Z,16.20
2018-03-31T13:58:12.838Z,16.20
2018-03-31T14:00:39.900Z,16.20
2018-03-31T14:03:07.719Z,16.20
2018-03-31T14:05:34.782Z,16.10
2018-03-31T14:08:01.867Z,16.10
2018-03-31T14:10:29.717Z,16.20
2018-03-31T14:12:57.539Z,16.20
2018-03-31T14:15:24.639Z,16.20
2018-03-31T14:17:52.459Z,16.10
2018-03-31T14:20:19.522Z,16.10
2018-03-31T14:22:46.684Z,15.90
2018-03-31T14:25:13.735Z,15.80
2018-03-31T14:27:40.838Z,15.80
2018-03-31T14:30:07.927Z,15.90
2018-03-31T14:32:35.006Z,15.90
2018-03-31T14:35:02.100Z,15.80
2018-03-31T14:37:29.177Z,15.80
2018-03-31T14:39:56.283Z,15.70
2018-03-31T14:42:23.372Z,15.60
2018-03-31T14:44:50.466Z,15.60
2018-03-31T14:47:17.531Z,15.60
2018-03-31T14:49:44.588Z,15.60
2018-03-31T14:52:11.677Z,15.50
2018-03-31T14:54:39.680Z,15.50
2018-03-31T14:57:06.787Z,15.40
2018-03-31T14:59:33.844Z,15.40
2018-03-31T15:02:00.939Z,15.30
2018-03-31T15:04:28.049Z,15.20
2018-03-31T15:06:55.115Z,15.20
2018-03-31T15:09:22.947Z,15.10
2018-03-31T15:11:50.030Z,15.10
2018-03-31T15:14:17.843Z,15.10
2018-03-31T15:16:44.942Z,15.10
2018-03-31T15:19:12.085Z,15.10
2018-03-31T15:21:39.184Z,15.10
2018-03-31T15:24:06.244Z,15.10
2018-03-31T15:26:33.341Z,15.00
2018-03-31T15:29:01.175Z,14.90
2018-03-31T15:31:28.472Z,14.90
2018-03-31T15:33:55.560Z,14.90
2018-03-31T15:36:22.616Z,14.90
2018-03-31T15:38:49.718Z,14.90
2018-03-31T15:41:16.764Z,14.80
2018-03-31T15:43:43.836Z,14.80
2018-03-31T15:46:10.927Z,14.70
2018-03-31T15:48:37.994Z,14.70
2018-03-31T15:51:05.283Z,14.70
2018-03-31T15:53:32.328Z,14.70
2018-03-31T15:55:59.427Z,14.70
2018-03-31T15:58:26.493Z,14.70
2018-03-31T16:00:53.557Z,14.60
2018-03-31T16:03:20.648Z,14.50
2018-03-31T16:05:47.733Z,14.50
2018-03-31T16:08:15.593Z,14.40
2018-03-31T16:10:42.648Z,14.40
2018-03-31T16:13:09.776Z,14.30
2018-03-31T16:15:36.823Z,14.40
2018-03-31T16:18:03.888Z,14.40
2018-03-31T16:20:31.754Z,14.20
2018-03-31T16:22:59.987Z,14.20
2018-03-31T16:25:27.089Z,14.10
2018-03-31T16:27:54.915Z,14.10
2018-03-31T16:30:22.021Z,14.10
2018-03-31T16:32:49.112Z,13.90
2018-03-31T16:35:16.175Z,13.70
2018-03-31T16:37:43.237Z,13.50
2018-03-31T16:40:10.447Z,13.40
2018-03-31T16:42:37.514Z,13.20
2018-03-31T16:45:04.597Z,13.10
2018-03-31T16:47:32.438Z,12.80
2018-03-31T16:49:59.551Z,12.70
2018-03-31T16:52:26.611Z,12.60
2018-03-31T16:54:53.697Z,12.50
2018-03-31T16:57:20.743Z,12.50
2018-03-31T16:59:47.815Z,12.30
2018-03-31T17:02:15.665Z,12.30
2018-03-31T17:04:42.724Z,12.30
2018-03-31T17:07:10.568Z,12.20
2018-03-31T17:09:37.684Z,12.10
2018-03-31T17:12:04.776Z,12.20
2018-03-31T17:14:31.884Z,12.10
2018-03-31T17:16:59.695Z,12.10
2018-03-31T17:19:26.772Z,12.10
2018-03-31T17:21:53.836Z,12.00
2018-03-31T17:24:20.931Z,12.00
2018-03-31T17:26:48.001Z,11.80
2018-03-31T17:29:15.839Z,11.90
2018-03-31T17:31:42.923Z,11.80
2018-03-31T17:34:09.972Z,11.70
2018-03-31T17:36:37.068Z,11.70
2018-03-31T17:39:04.132Z,11.70
2018-03-31T17:41:31.235Z,11.60
2018-03-31T17:43:58.336Z,11.40
2018-03-31T17:46:25.420Z,11.40
2018-03-31T17:48:52.522Z,11.30
2018-03-31T17:51:19.586Z,11.20
2018-03-31T17:53:46.687Z,11.20
2018-03-31T17:56:13.767Z,11.30
2018-03-31T17:58:40.840Z,11.30
2018-03-31T18:01:07.925Z,11.30
2018-03-31T18:03:34.980Z,11.40
2018-03-31T18:06:02.853Z,11.40
2018-03-31T18:08:29.958Z,11.30
2018-03-31T18:10:57.858Z,11.20
2018-03-31T18:13:24.917Z,11.20
2018-03-31T18:15:51.980Z,11.40
2018-03-31T18:18:19.072Z,11.30
2018-03-31T18:20:46.895Z,11.20
2018-03-31T18:23:14.021Z,11.20
2018-03-31T18:25:41.092Z,11.00
2018-03-31T18:28:08.155Z,10.90
2018-03-31T18:30:35.242Z,10.90
2018-03-31T18:33:03.059Z,10.80
2018-03-31T18:35:30.153Z,10.80
2018-03-31T18:37:58.042Z,10.60
2018-03-31T18:40:25.109Z,10.60
2018-03-31T18:42:52.222Z,10.50
2018-03-31T18:45:20.062Z,10.50
2018-03-31T18:47:47.153Z,10.50
2018-03-31T18:50:14.244Z,10.50
2018-03-31T18:52:41.370Z,10.60
2018-03-31T18:55:08.485Z,10.60
2018-03-31T18:57:35.548Z,10.50
2018-03-31T19:00:02.637Z,10.50
2018-03-31T19:02:29.816Z,10.50
2018-03-31T19:04:56.888Z,10.50
2018-03-31T19:07:24.712Z,10.30
2018-03-31T19:09:51.823Z,10.30
2018-03-31T19:12:18.880Z,10.20
2018-03-31T19:14:45.940Z,10.30
2018-03-31T19:17:15.406Z,10.30
2018-03-31T19:19:43.230Z,10.30
2018-03-31T19:22:10.380Z,10.30
2018-03-31T19:24:42.939Z,10.30
2018-03-31T19:27:10.076Z,10.30
2018-03-31T19:29:37.147Z,10.30
2018-03-31T19:32:04.212Z,10.30
2018-03-31T19:34:31.379Z,10.20
2018-03-31T19:36:58.438Z,10.20
2018-03-31T19:39:31.887Z,10.20
2018-03-31T19:41:58.999Z,10.20
2018-03-31T19:44:26.077Z,10.20
2018-03-31T19:46:53.136Z,10.20
2018-03-31T19:49:20.219Z,10.20
2018-03-31T19:51:47.276Z,10.30
2018-03-31T19:54:15.135Z,10.30
2018-03-31T19:56:42.981Z,10.20
2018-03-31T19:59:10.077Z,10.20
2018-03-31T20:01:37.186Z,10.20
2018-03-31T20:04:04.250Z,10.10
2018-03-31T20:06:31.332Z,10.10
2018-03-31T20:08:58.433Z,10.10
2018-03-31T20:11:25.501Z,10.10
2018-03-31T20:13:52.603Z,10.10
2018-03-31T20:16:19.668Z,10.10
2018-03-31T20:18:46.744Z,10.10
2018-03-31T20:21:14.628Z,10.00
2018-03-31T20:23:42.459Z,10.00
2018-03-31T20:26:09.659Z,10.00
2018-03-31T20:28:36.743Z,10.00
2018-03-31T20:31:03.838Z,10.00
2018-03-31T20:33:31.688Z,9.90
2018-03-31T20:35:58.785Z,9.90
2018-03-31T20:38:25.853Z,9.80
2018-03-31T20:40:52.946Z,9.80
2018-03-31T20:43:20.800Z,9.80
2018-03-31T20:45:47.867Z,9.80
2018-03-31T20:48:15.728Z,9.90
2018-03-31T20:50:43.547Z,9.90
2018-03-31T20:53:10.637Z,10.00
2018-03-31T20:55:38.481Z,9.90
2018-03-31T20:58:05.572Z,9.90
2018-03-31T21:00:33.389Z,9.90
2018-03-31T21:03:00.489Z,9.90
2018-03-31T21:05:27.548Z,9.90
2018-03-31T21:07:54.608Z,10.00
2018-03-31T21:10:21.700Z,10.10
2018-03-31T21:12:48.756Z,10.00
2018-03-31T21:15:15.855Z,10.00
2018-03-31T21:17:43.720Z,10.00
2018-03-31T21:20:10.820Z,10.00
2018-03-31T21:22:37.872Z,10.00
2018-03-31T21:25:05.699Z,10.10
2018-03-31T21:27:32.783Z,10.10
2018-03-31T21:29:59.900Z,10.20
2018-03-31T21:32:26.959Z,10.10
2018-03-31T21:34:54.107Z,10.20
2018-03-31T21:37:21.193Z,10.10
2018-03-31T21:39:48.252Z,10.00
2018-03-31T21:42:16.155Z,9.90
2018-03-31T21:44:43.224Z,9.90
2018-03-31T21:47:10.281Z,9.90
2018-03-31T21:49:37.500Z,9.80
2018-03-31T21:52:04.612Z,9.80
2018-03-31T21:54:32.433Z,9.90
2018-03-31T21:56:59.574Z,9.90
2018-03-31T21:59:26.623Z,9.90
2018-03-31T22:01:53.689Z,9.90
2018-03-31T22:04:20.781Z,9.80
2018-03-31T22:06:47.872Z,9.80
2018-03-31T22:09:14.948Z,9.80
2018-03-31T22:11:42.032Z,9.80
2018-03-31T22:14:14.700Z,9.80
2018-03-31T22:16:41.774Z,9.80
2018-03-31T22:19:08.872Z,9.80
2018-03-31T22:21:35.927Z,9.90
2018-03-31T22:24:03.028Z,9.90
2018-03-31T22:26:30.075Z,9.90
2018-03-31T22:28:57.170Z,10.00
2018-03-31T22:31:24.241Z,10.00
2018-03-31T22:33:52.064Z,10.10
2018-03-31T22:36:19.148Z,10.10
2018-03-31T22:38:47.009Z,10.10
2018-03-31T22:41:14.908Z,10.10
2018-03-31T22:43:41.991Z,10.10
2018-03-31T22:46:09.055Z,10.20
2018-03-31T22:48:36.116Z,10.10
2018-03-31T22:51:03.196Z,10.10
2018-03-31T22:53:30.416Z,10.10
2018-03-31T22:55:57.476Z,10.10
2018-03-31T22:58:25.305Z,10.20
2018-03-31T23:00:52.391Z,10.20
2018-03-31T23:03:19.455Z,10.20
2018-03-31T23:05:46.545Z,10.10
2018-03-31T23:08:13.627Z,10.10
2018-03-31T23:10:40.703Z,10.10
2018-03-31T23:13:07.764Z,10.00
2018-03-31T23:15:34.871Z,10.00
2018-03-31T23:18:01.936Z,10.00
2018-03-31T23:20:29.890Z,10.00
2018-03-31T23:22:57.761Z,10.10
2018-03-31T23:25:24.815Z,10.00
2018-03-31T23:27:51.916Z,10.00
2018-03-31T23:30:19.031Z,10.10
2018-03-31T23:32:46.865Z,10.00
2018-03-31T23:35:13.923Z,10.00
2018-03-31T23:37:41.009Z,9.90
2018-03-31T23:40:08.066Z,9.80
2018-03-31T23:42:35.165Z,9.70
2018-03-31T23:45:02.330Z,9.60
2018-03-31T23:47:29.351Z,9.60
2018-03-31T23:49:56.463Z,9.60
2018-03-31T23:52:23.517Z,9.70
2018-03-31T23:54:50.571Z,9.80
2018-03-31T23:57:17.688Z,9.80
2018-03-31T23:59:44.794Z,9.80
